sensor_id;sensor_type;location;lat;lon;timestamp;P1;durP1;ratioP1;P2;durP2;ratioP2
22929;SDS011;11630;42.660;23.292;2023-04-01T00:01:25;20.13;;;9.43;;
22929;SDS011;11630;42.660;23.292;2023-04-01T00:03:56;18.37;;;9.37;;
22929;SDS011;11630;42.660;23.292;2023-04-01T00:06:27;24.67;;;10.17;;
22929;SDS011;11630;42.660;23.292;2023-04-01T00:08:57;20.50;;;11.67;;
22929;SDS011;11630;42.660;23.292;2023-04-01T00:11:28;22.77;;;10.90;;
22929;SDS011;11630;42.660;23.292;2023-04-01T00:13:59;18.17;;;9.10;;
22929;SDS011;11630;42.660;23.292;2023-04-01T00:16:30;20.43;;;11.40;;
22929;SDS011;11630;42.660;23.292;2023-04-01T00:19:02;20.20;;;10.20;;
22929;SDS011;11630;42.660;23.292;2023-04-01T00:21:32;17.33;;;11.00;;
22929;SDS011;11630;42.660;23.292;2023-04-01T00:24:03;25.10;;;12.07;;
22929;SDS011;11630;42.660;23.292;2023-04-01T00:26:34;33.37;;;13.60;;
22929;SDS011;11630;42.660;23.292;2023-04-01T00:29:04;26.57;;;13.83;;
22929;SDS011;11630;42.660;23.292;2023-04-01T00:31:35;34.07;;;16.50;;
22929;SDS011;11630;42.660;23.292;2023-04-01T00:34:07;32.13;;;15.07;;
22929;SDS011;11630;42.660;23.292;2023-04-01T00:36:37;34.10;;;16.23;;
22929;SDS011;11630;42.660;23.292;2023-04-01T00:39:08;32.50;;;16.40;;
22929;SDS011;11630;42.660;23.292;2023-04-01T00:41:39;32.30;;;16.30;;
22929;SDS011;11630;42.660;23.292;2023-04-01T00:44:23;27.23;;;14.40;;
22929;SDS011;11630;42.660;23.292;2023-04-01T00:46:56;24.50;;;13.77;;
22929;SDS011;11630;42.660;23.292;2023-04-01T00:49:29;18.90;;;11.93;;
22929;SDS011;11630;42.660;23.292;2023-04-01T00:51:59;23.40;;;13.13;;
22929;SDS011;11630;42.660;23.292;2023-04-01T00:54:33;20.80;;;12.00;;
22929;SDS011;11630;42.660;23.292;2023-04-01T00:57:08;19.20;;;11.50;;
22929;SDS011;11630;42.660;23.292;2023-04-01T00:59:43;19.53;;;11.57;;
22929;SDS011;11630;42.660;23.292;2023-04-01T01:02:17;26.53;;;12.50;;
22929;SDS011;11630;42.660;23.292;2023-04-01T01:04:48;23.53;;;11.70;;
22929;SDS011;11630;42.660;23.292;2023-04-01T01:07:20;18.53;;;10.43;;
22929;SDS011;11630;42.660;23.292;2023-04-01T01:09:57;21.13;;;11.70;;
22929;SDS011;11630;42.660;23.292;2023-04-01T01:15:53;26.33;;;12.73;;
22929;SDS011;11630;42.660;23.292;2023-04-01T01:18:30;18.93;;;10.50;;
22929;SDS011;11630;42.660;23.292;2023-04-01T01:21:11;22.80;;;11.63;;
22929;SDS011;11630;42.660;23.292;2023-04-01T01:31:57;17.00;;;9.53;;
22929;SDS011;11630;42.660;23.292;2023-04-01T01:37:15;15.13;;;7.47;;
22929;SDS011;11630;42.660;23.292;2023-04-01T01:39:54;12.10;;;7.23;;
22929;SDS011;11630;42.660;23.292;2023-04-01T01:42:18;12.40;;;6.93;;
22929;SDS011;11630;42.660;23.292;2023-04-01T01:44:51;15.80;;;6.87;;
22929;SDS011;11630;42.660;23.292;2023-04-01T01:47:22;14.43;;;7.33;;
22929;SDS011;11630;42.660;23.292;2023-04-01T01:49:55;13.80;;;7.30;;
22929;SDS011;11630;42.660;23.292;2023-04-01T01:52:27;12.13;;;7.20;;
22929;SDS011;11630;42.660;23.292;2023-04-01T01:54:58;13.93;;;7.03;;
22929;SDS011;11630;42.660;23.292;2023-04-01T01:57:31;11.00;;;7.87;;
22929;SDS011;11630;42.660;23.292;2023-04-01T02:00:07;15.23;;;6.47;;
22929;SDS011;11630;42.660;23.292;2023-04-01T02:02:36;11.47;;;6.00;;
22929;SDS011;11630;42.660;23.292;2023-04-01T02:05:09;11.23;;;6.10;;
22929;SDS011;11630;42.660;23.292;2023-04-01T02:07:39;9.83;;;6.03;;
22929;SDS011;11630;42.660;23.292;2023-04-01T02:10:13;13.70;;;6.37;;
22929;SDS011;11630;42.660;23.292;2023-04-01T02:12:45;10.17;;;6.40;;
22929;SDS011;11630;42.660;23.292;2023-04-01T02:15:17;11.53;;;5.47;;
22929;SDS011;11630;42.660;23.292;2023-04-01T02:17:49;7.50;;;5.57;;
22929;SDS011;11630;42.660;23.292;2023-04-01T02:20:21;15.27;;;5.73;;
22929;SDS011;11630;42.660;23.292;2023-04-01T02:22:55;7.00;;;4.90;;
22929;SDS011;11630;42.660;23.292;2023-04-01T02:25:32;10.67;;;5.50;;
22929;SDS011;11630;42.660;23.292;2023-04-01T02:28:04;10.23;;;6.10;;
22929;SDS011;11630;42.660;23.292;2023-04-01T02:30:39;14.40;;;5.70;;
22929;SDS011;11630;42.660;23.292;2023-04-01T02:33:10;10.13;;;6.37;;
22929;SDS011;11630;42.660;23.292;2023-04-01T02:35:40;12.27;;;5.57;;
22929;SDS011;11630;42.660;23.292;2023-04-01T02:38:11;8.73;;;5.67;;
22929;SDS011;11630;42.660;23.292;2023-04-01T02:40:42;17.50;;;7.67;;
22929;SDS011;11630;42.660;23.292;2023-04-01T02:43:16;8.40;;;4.27;;
22929;SDS011;11630;42.660;23.292;2023-04-01T02:45:47;9.70;;;4.93;;
22929;SDS011;11630;42.660;23.292;2023-04-01T02:48:17;11.13;;;5.37;;
22929;SDS011;11630;42.660;23.292;2023-04-01T02:50:48;14.40;;;8.30;;
22929;SDS011;11630;42.660;23.292;2023-04-01T02:53:18;10.40;;;5.37;;
22929;SDS011;11630;42.660;23.292;2023-04-01T02:55:49;8.00;;;6.07;;
22929;SDS011;11630;42.660;23.292;2023-04-01T02:58:19;16.37;;;6.73;;
22929;SDS011;11630;42.660;23.292;2023-04-01T03:00:51;12.90;;;6.40;;
22929;SDS011;11630;42.660;23.292;2023-04-01T03:03:22;11.00;;;5.53;;
22929;SDS011;11630;42.660;23.292;2023-04-01T03:05:52;11.73;;;5.80;;
22929;SDS011;11630;42.660;23.292;2023-04-01T03:08:23;8.83;;;5.97;;
22929;SDS011;11630;42.660;23.292;2023-04-01T03:10:55;9.10;;;5.60;;
22929;SDS011;11630;42.660;23.292;2023-04-01T03:13:26;11.00;;;5.30;;
22929;SDS011;11630;42.660;23.292;2023-04-01T03:15:57;11.87;;;5.87;;
22929;SDS011;11630;42.660;23.292;2023-04-01T03:18:28;21.03;;;6.77;;
22929;SDS011;11630;42.660;23.292;2023-04-01T03:21:11;14.43;;;6.57;;
22929;SDS011;11630;42.660;23.292;2023-04-01T03:23:45;8.83;;;5.97;;
22929;SDS011;11630;42.660;23.292;2023-04-01T03:26:15;10.90;;;6.40;;
22929;SDS011;11630;42.660;23.292;2023-04-01T03:28:46;13.70;;;6.70;;
22929;SDS011;11630;42.660;23.292;2023-04-01T03:31:16;11.80;;;6.07;;
22929;SDS011;11630;42.660;23.292;2023-04-01T03:33:46;11.07;;;6.47;;
22929;SDS011;11630;42.660;23.292;2023-04-01T03:36:17;8.60;;;6.60;;
22929;SDS011;11630;42.660;23.292;2023-04-01T03:38:47;13.20;;;8.13;;
22929;SDS011;11630;42.660;23.292;2023-04-01T03:41:18;13.77;;;8.10;;
22929;SDS011;11630;42.660;23.292;2023-04-01T03:43:48;21.03;;;7.77;;
22929;SDS011;11630;42.660;23.292;2023-04-01T03:46:19;13.23;;;7.57;;
22929;SDS011;11630;42.660;23.292;2023-04-01T03:48:50;11.67;;;7.00;;
22929;SDS011;11630;42.660;23.292;2023-04-01T03:51:20;11.30;;;6.90;;
22929;SDS011;11630;42.660;23.292;2023-04-01T03:53:51;15.23;;;8.03;;
22929;SDS011;11630;42.660;23.292;2023-04-01T03:56:21;13.83;;;7.33;;
22929;SDS011;11630;42.660;23.292;2023-04-01T03:58:52;19.53;;;7.33;;
22929;SDS011;11630;42.660;23.292;2023-04-01T04:01:23;10.93;;;6.53;;
22929;SDS011;11630;42.660;23.292;2023-04-01T04:03:54;11.23;;;6.63;;
22929;SDS011;11630;42.660;23.292;2023-04-01T04:06:25;15.63;;;5.90;;
22929;SDS011;11630;42.660;23.292;2023-04-01T04:08:56;7.17;;;4.87;;
22929;SDS011;11630;42.660;23.292;2023-04-01T04:11:27;10.83;;;5.07;;
22929;SDS011;11630;42.660;23.292;2023-04-01T04:13:59;7.47;;;5.00;;
22929;SDS011;11630;42.660;23.292;2023-04-01T04:16:29;10.53;;;5.50;;
22929;SDS011;11630;42.660;23.292;2023-04-01T04:19:00;5.63;;;4.80;;
22929;SDS011;11630;42.660;23.292;2023-04-01T04:21:31;7.50;;;4.73;;
22929;SDS011;11630;42.660;23.292;2023-04-01T04:24:02;12.53;;;6.00;;
22929;SDS011;11630;42.660;23.292;2023-04-01T04:26:33;12.13;;;5.50;;
22929;SDS011;11630;42.660;23.292;2023-04-01T04:29:03;14.10;;;8.87;;
22929;SDS011;11630;42.660;23.292;2023-04-01T04:31:34;12.47;;;8.93;;
22929;SDS011;11630;42.660;23.292;2023-04-01T04:34:05;16.40;;;8.10;;
22929;SDS011;11630;42.660;23.292;2023-04-01T04:36:36;15.20;;;7.53;;
22929;SDS011;11630;42.660;23.292;2023-04-01T04:39:06;13.00;;;8.13;;
22929;SDS011;11630;42.660;23.292;2023-04-01T04:41:37;13.07;;;8.47;;
22929;SDS011;11630;42.660;23.292;2023-04-01T04:44:07;13.03;;;8.80;;
22929;SDS011;11630;42.660;23.292;2023-04-01T04:46:41;18.27;;;9.80;;
22929;SDS011;11630;42.660;23.292;2023-04-01T04:49:14;13.83;;;8.33;;
22929;SDS011;11630;42.660;23.292;2023-04-01T04:51:44;16.83;;;7.53;;
22929;SDS011;11630;42.660;23.292;2023-04-01T04:54:14;14.73;;;7.43;;
22929;SDS011;11630;42.660;23.292;2023-04-01T04:56:45;11.80;;;7.17;;
22929;SDS011;11630;42.660;23.292;2023-04-01T04:59:15;9.90;;;7.17;;
22929;SDS011;11630;42.660;23.292;2023-04-01T05:01:46;13.30;;;7.47;;
22929;SDS011;11630;42.660;23.292;2023-04-01T05:04:16;13.33;;;6.77;;
22929;SDS011;11630;42.660;23.292;2023-04-01T05:06:48;11.40;;;6.67;;
22929;SDS011;11630;42.660;23.292;2023-04-01T05:09:19;12.67;;;7.57;;
22929;SDS011;11630;42.660;23.292;2023-04-01T05:11:48;12.30;;;7.40;;
22929;SDS011;11630;42.660;23.292;2023-04-01T05:14:19;18.87;;;9.07;;
22929;SDS011;11630;42.660;23.292;2023-04-01T05:16:50;15.90;;;8.23;;
22929;SDS011;11630;42.660;23.292;2023-04-01T05:19:20;17.43;;;7.90;;
22929;SDS011;11630;42.660;23.292;2023-04-01T05:21:51;12.87;;;8.03;;
22929;SDS011;11630;42.660;23.292;2023-04-01T05:24:22;17.00;;;7.93;;
22929;SDS011;11630;42.660;23.292;2023-04-01T05:26:52;16.00;;;7.10;;
22929;SDS011;11630;42.660;23.292;2023-04-01T05:29:24;11.70;;;6.93;;
22929;SDS011;11630;42.660;23.292;2023-04-01T05:31:55;15.50;;;7.60;;
22929;SDS011;11630;42.660;23.292;2023-04-01T05:34:26;15.50;;;8.13;;
22929;SDS011;11630;42.660;23.292;2023-04-01T05:36:57;14.03;;;8.23;;
22929;SDS011;11630;42.660;23.292;2023-04-01T05:39:28;14.43;;;7.60;;
22929;SDS011;11630;42.660;23.292;2023-04-01T05:41:59;10.73;;;7.17;;
22929;SDS011;11630;42.660;23.292;2023-04-01T05:44:30;12.53;;;7.70;;
22929;SDS011;11630;42.660;23.292;2023-04-01T05:47:03;11.50;;;7.30;;
22929;SDS011;11630;42.660;23.292;2023-04-01T05:49:34;17.50;;;7.90;;
22929;SDS011;11630;42.660;23.292;2023-04-01T05:52:05;13.87;;;7.37;;
22929;SDS011;11630;42.660;23.292;2023-04-01T05:54:38;17.20;;;6.73;;
22929;SDS011;11630;42.660;23.292;2023-04-01T05:57:09;10.43;;;5.80;;
22929;SDS011;11630;42.660;23.292;2023-04-01T05:59:39;13.67;;;7.20;;
22929;SDS011;11630;42.660;23.292;2023-04-01T06:02:10;15.73;;;7.80;;
22929;SDS011;11630;42.660;23.292;2023-04-01T06:04:41;13.73;;;6.07;;
22929;SDS011;11630;42.660;23.292;2023-04-01T06:07:16;10.10;;;6.40;;
22929;SDS011;11630;42.660;23.292;2023-04-01T06:09:49;9.27;;;5.47;;
22929;SDS011;11630;42.660;23.292;2023-04-01T06:15:06;18.13;;;6.57;;
22929;SDS011;11630;42.660;23.292;2023-04-01T06:20:24;7.60;;;5.07;;
22929;SDS011;11630;42.660;23.292;2023-04-01T06:28:37;11.07;;;5.10;;
22929;SDS011;11630;42.660;23.292;2023-04-01T06:31:12;8.97;;;5.17;;
22929;SDS011;11630;42.660;23.292;2023-04-01T06:33:52;9.03;;;5.30;;
22929;SDS011;11630;42.660;23.292;2023-04-01T06:50:30;14.80;;;4.43;;
22929;SDS011;11630;42.660;23.292;2023-04-01T06:53:17;9.70;;;4.90;;
22929;SDS011;11630;42.660;23.292;2023-04-01T06:55:49;8.00;;;4.03;;
22929;SDS011;11630;42.660;23.292;2023-04-01T06:58:27;13.30;;;4.27;;
22929;SDS011;11630;42.660;23.292;2023-04-01T07:00:57;7.27;;;5.23;;
22929;SDS011;11630;42.660;23.292;2023-04-01T07:08:55;15.30;;;5.67;;
22929;SDS011;11630;42.660;23.292;2023-04-01T07:11:30;14.60;;;6.50;;
22929;SDS011;11630;42.660;23.292;2023-04-01T07:14:02;14.07;;;6.23;;
22929;SDS011;11630;42.660;23.292;2023-04-01T07:16:44;13.60;;;6.30;;
22929;SDS011;11630;42.660;23.292;2023-04-01T07:19:20;6.53;;;5.00;;
22929;SDS011;11630;42.660;23.292;2023-04-01T07:21:59;13.13;;;5.47;;
22929;SDS011;11630;42.660;23.292;2023-04-01T07:24:36;9.10;;;5.87;;
22929;SDS011;11630;42.660;23.292;2023-04-01T07:27:10;12.70;;;6.30;;
22929;SDS011;11630;42.660;23.292;2023-04-01T07:29:44;13.60;;;6.70;;
22929;SDS011;11630;42.660;23.292;2023-04-01T07:35:09;12.70;;;6.70;;
22929;SDS011;11630;42.660;23.292;2023-04-01T07:37:42;10.70;;;6.37;;
22929;SDS011;11630;42.660;23.292;2023-04-01T07:40:21;16.40;;;6.07;;
22929;SDS011;11630;42.660;23.292;2023-04-01T07:49:03;10.23;;;5.27;;
22929;SDS011;11630;42.660;23.292;2023-04-01T07:54:18;11.27;;;5.20;;
22929;SDS011;11630;42.660;23.292;2023-04-01T07:57:12;15.43;;;5.67;;
22929;SDS011;11630;42.660;23.292;2023-04-01T07:59:45;15.00;;;5.77;;
22929;SDS011;11630;42.660;23.292;2023-04-01T08:02:30;12.03;;;6.03;;
22929;SDS011;11630;42.660;23.292;2023-04-01T08:14:07;10.47;;;6.10;;
22929;SDS011;11630;42.660;23.292;2023-04-01T08:16:46;12.07;;;5.30;;
22929;SDS011;11630;42.660;23.292;2023-04-01T08:22:02;16.93;;;5.50;;
22929;SDS011;11630;42.660;23.292;2023-04-01T08:24:42;15.43;;;5.80;;
22929;SDS011;11630;42.660;23.292;2023-04-01T08:27:17;12.73;;;5.83;;
22929;SDS011;11630;42.660;23.292;2023-04-01T08:29:51;10.03;;;6.87;;
22929;SDS011;11630;42.660;23.292;2023-04-01T08:32:40;9.63;;;5.77;;
22929;SDS011;11630;42.660;23.292;2023-04-01T08:35:30;16.20;;;5.80;;
22929;SDS011;11630;42.660;23.292;2023-04-01T08:38:24;11.77;;;5.77;;
22929;SDS011;11630;42.660;23.292;2023-04-01T08:57:45;7.20;;;4.70;;
22929;SDS011;11630;42.660;23.292;2023-04-01T09:00:24;8.60;;;4.80;;
22929;SDS011;11630;42.660;23.292;2023-04-01T09:05:42;9.10;;;5.50;;
22929;SDS011;11630;42.660;23.292;2023-04-01T09:11:06;8.30;;;4.70;;
22929;SDS011;11630;42.660;23.292;2023-04-01T09:14:00;7.17;;;4.73;;
22929;SDS011;11630;42.660;23.292;2023-04-01T09:16:38;11.03;;;4.63;;
22929;SDS011;11630;42.660;23.292;2023-04-01T09:19:14;15.30;;;4.60;;
22929;SDS011;11630;42.660;23.292;2023-04-01T09:24:46;12.70;;;4.57;;
22929;SDS011;11630;42.660;23.292;2023-04-01T09:27:26;8.13;;;3.80;;
22929;SDS011;11630;42.660;23.292;2023-04-01T09:30:31;9.83;;;4.13;;
22929;SDS011;11630;42.660;23.292;2023-04-01T09:41:31;21.57;;;3.87;;
22929;SDS011;11630;42.660;23.292;2023-04-01T09:44:11;11.40;;;3.63;;
22929;SDS011;11630;42.660;23.292;2023-04-01T09:47:37;11.60;;;3.47;;
22929;SDS011;11630;42.660;23.292;2023-04-01T09:49:40;10.70;;;2.83;;
22929;SDS011;11630;42.660;23.292;2023-04-01T10:03:43;11.67;;;3.87;;
22929;SDS011;11630;42.660;23.292;2023-04-01T10:10:16;14.73;;;3.80;;
22929;SDS011;11630;42.660;23.292;2023-04-01T10:14:37;16.17;;;3.67;;
22929;SDS011;11630;42.660;23.292;2023-04-01T10:17:23;8.93;;;3.33;;
22929;SDS011;11630;42.660;23.292;2023-04-01T10:19:54;15.00;;;3.93;;
22929;SDS011;11630;42.660;23.292;2023-04-01T10:22:27;10.10;;;3.63;;
22929;SDS011;11630;42.660;23.292;2023-04-01T10:39:11;9.40;;;3.00;;
22929;SDS011;11630;42.660;23.292;2023-04-01T10:42:12;11.47;;;3.90;;
22929;SDS011;11630;42.660;23.292;2023-04-01T10:45:08;8.30;;;3.10;;
22929;SDS011;11630;42.660;23.292;2023-04-01T10:59:28;6.50;;;3.60;;
22929;SDS011;11630;42.660;23.292;2023-04-01T11:02:05;9.57;;;4.10;;
22929;SDS011;11630;42.660;23.292;2023-04-01T11:21:49;5.10;;;2.30;;
22929;SDS011;11630;42.660;23.292;2023-04-01T11:24:33;10.03;;;2.17;;
22929;SDS011;11630;42.660;23.292;2023-04-01T11:27:10;5.93;;;1.80;;
22929;SDS011;11630;42.660;23.292;2023-04-01T11:32:54;6.70;;;2.23;;
22929;SDS011;11630;42.660;23.292;2023-04-01T11:35:51;5.90;;;2.53;;
22929;SDS011;11630;42.660;23.292;2023-04-01T11:38:20;4.40;;;2.00;;
22929;SDS011;11630;42.660;23.292;2023-04-01T11:46:54;13.53;;;2.50;;
22929;SDS011;11630;42.660;23.292;2023-04-01T11:49:51;5.70;;;2.00;;
22929;SDS011;11630;42.660;23.292;2023-04-01T12:04:31;6.53;;;3.37;;
22929;SDS011;11630;42.660;23.292;2023-04-01T12:07:09;10.27;;;3.73;;
22929;SDS011;11630;42.660;23.292;2023-04-01T12:12:29;8.30;;;3.33;;
22929;SDS011;11630;42.660;23.292;2023-04-01T12:22:59;7.33;;;4.40;;
22929;SDS011;11630;42.660;23.292;2023-04-01T12:37:09;6.90;;;3.70;;
22929;SDS011;11630;42.660;23.292;2023-04-01T12:39:51;7.17;;;4.13;;
22929;SDS011;11630;42.660;23.292;2023-04-01T12:42:38;13.23;;;4.47;;
22929;SDS011;11630;42.660;23.292;2023-04-01T13:02:40;9.13;;;3.40;;
22929;SDS011;11630;42.660;23.292;2023-04-01T13:05:15;7.17;;;3.10;;
22929;SDS011;11630;42.660;23.292;2023-04-01T13:16:27;3.03;;;2.40;;
22929;SDS011;11630;42.660;23.292;2023-04-01T13:19:25;4.07;;;2.30;;
22929;SDS011;11630;42.660;23.292;2023-04-01T13:22:08;4.87;;;2.37;;
22929;SDS011;11630;42.660;23.292;2023-04-01T13:24:43;6.97;;;2.63;;
22929;SDS011;11630;42.660;23.292;2023-04-01T13:27:21;6.23;;;2.27;;
22929;SDS011;11630;42.660;23.292;2023-04-01T13:32:47;4.30;;;1.83;;
22929;SDS011;11630;42.660;23.292;2023-04-01T13:35:23;5.37;;;2.37;;
22929;SDS011;11630;42.660;23.292;2023-04-01T13:41:00;4.57;;;2.33;;
22929;SDS011;11630;42.660;23.292;2023-04-01T13:43:42;3.37;;;2.03;;
22929;SDS011;11630;42.660;23.292;2023-04-01T13:46:22;1.30;;;1.20;;
22929;SDS011;11630;42.660;23.292;2023-04-01T13:51:48;2.13;;;1.00;;
22929;SDS011;11630;42.660;23.292;2023-04-01T13:59:58;5.23;;;0.83;;
22929;SDS011;11630;42.660;23.292;2023-04-01T14:02:47;1.20;;;1.10;;
22929;SDS011;11630;42.660;23.292;2023-04-01T14:08:23;1.80;;;1.20;;
22929;SDS011;11630;42.660;23.292;2023-04-01T14:11:12;1.70;;;1.50;;
22929;SDS011;11630;42.660;23.292;2023-04-01T14:14:02;3.90;;;1.50;;
22929;SDS011;11630;42.660;23.292;2023-04-01T14:28:25;1.37;;;1.27;;
22929;SDS011;11630;42.660;23.292;2023-04-01T14:31:02;5.20;;;1.33;;
22929;SDS011;11630;42.660;23.292;2023-04-01T14:36:47;0.90;;;0.90;;
22929;SDS011;11630;42.660;23.292;2023-04-01T14:39:22;4.80;;;1.27;;
22929;SDS011;11630;42.660;23.292;2023-04-01T14:50:01;1.30;;;1.23;;
22929;SDS011;11630;42.660;23.292;2023-04-01T14:52:24;2.40;;;1.30;;
22929;SDS011;11630;42.660;23.292;2023-04-01T14:54:55;1.70;;;1.10;;
22929;SDS011;11630;42.660;23.292;2023-04-01T14:57:30;4.77;;;1.43;;
22929;SDS011;11630;42.660;23.292;2023-04-01T15:08:23;3.17;;;0.87;;
22929;SDS011;11630;42.660;23.292;2023-04-01T15:14:08;1.47;;;1.23;;
22929;SDS011;11630;42.660;23.292;2023-04-01T15:16:53;3.13;;;2.10;;
22929;SDS011;11630;42.660;23.292;2023-04-01T15:22:28;2.43;;;1.53;;
22929;SDS011;11630;42.660;23.292;2023-04-01T15:30:29;2.07;;;1.30;;
22929;SDS011;11630;42.660;23.292;2023-04-01T15:33:11;1.87;;;1.73;;
22929;SDS011;11630;42.660;23.292;2023-04-01T15:35:49;6.63;;;1.70;;
22929;SDS011;11630;42.660;23.292;2023-04-01T15:41:28;1.87;;;1.50;;
22929;SDS011;11630;42.660;23.292;2023-04-01T15:44:35;2.40;;;1.77;;
22929;SDS011;11630;42.660;23.292;2023-04-01T15:47:15;5.90;;;1.87;;
22929;SDS011;11630;42.660;23.292;2023-04-01T15:50:03;1.67;;;1.57;;
22929;SDS011;11630;42.660;23.292;2023-04-01T15:53:05;1.70;;;1.20;;
22929;SDS011;11630;42.660;23.292;2023-04-01T15:55:39;3.40;;;1.17;;
22929;SDS011;11630;42.660;23.292;2023-04-01T16:01:16;3.17;;;1.73;;
22929;SDS011;11630;42.660;23.292;2023-04-01T16:06:59;2.87;;;2.10;;
22929;SDS011;11630;42.660;23.292;2023-04-01T16:12:35;2.60;;;2.23;;
22929;SDS011;11630;42.660;23.292;2023-04-01T16:15:15;2.77;;;2.17;;
22929;SDS011;11630;42.660;23.292;2023-04-01T16:23:29;2.27;;;2.07;;
22929;SDS011;11630;42.660;23.292;2023-04-01T16:37:09;4.93;;;2.43;;
22929;SDS011;11630;42.660;23.292;2023-04-01T16:40:02;2.10;;;2.00;;
22929;SDS011;11630;42.660;23.292;2023-04-01T16:45:19;2.43;;;2.00;;
22929;SDS011;11630;42.660;23.292;2023-04-01T16:48:13;2.40;;;1.77;;
22929;SDS011;11630;42.660;23.292;2023-04-01T16:50:49;2.10;;;1.90;;
22929;SDS011;11630;42.660;23.292;2023-04-01T16:54:25;1.90;;;1.80;;
22929;SDS011;11630;42.660;23.292;2023-04-01T16:56:27;2.40;;;2.20;;
22929;SDS011;11630;42.660;23.292;2023-04-01T17:01:44;2.43;;;2.23;;
22929;SDS011;11630;42.660;23.292;2023-04-01T17:04:30;1.57;;;1.40;;
22929;SDS011;11630;42.660;23.292;2023-04-01T17:12:37;1.77;;;1.67;;
22929;SDS011;11630;42.660;23.292;2023-04-01T17:18:09;3.80;;;1.57;;
22929;SDS011;11630;42.660;23.292;2023-04-01T17:20:47;1.30;;;1.30;;
22929;SDS011;11630;42.660;23.292;2023-04-01T17:29:22;1.70;;;1.60;;
22929;SDS011;11630;42.660;23.292;2023-04-01T17:37:57;2.10;;;2.00;;
22929;SDS011;11630;42.660;23.292;2023-04-01T17:51:53;2.90;;;2.60;;
22929;SDS011;11630;42.660;23.292;2023-04-01T18:00:18;2.90;;;2.70;;
22929;SDS011;11630;42.660;23.292;2023-04-01T18:11:54;3.50;;;2.73;;
22929;SDS011;11630;42.660;23.292;2023-04-01T18:22:48;2.70;;;1.87;;
22929;SDS011;11630;42.660;23.292;2023-04-01T18:25:22;2.90;;;2.40;;
22929;SDS011;11630;42.660;23.292;2023-04-01T18:30:41;4.57;;;2.97;;
22929;SDS011;11630;42.660;23.292;2023-04-01T18:39:17;3.83;;;3.20;;
22929;SDS011;11630;42.660;23.292;2023-04-01T18:44:30;3.77;;;2.83;;
22929;SDS011;11630;42.660;23.292;2023-04-01T18:57:49;3.27;;;2.70;;
22929;SDS011;11630;42.660;23.292;2023-04-01T19:00:28;2.90;;;2.63;;
22929;SDS011;11630;42.660;23.292;2023-04-01T19:03:06;2.53;;;2.33;;
22929;SDS011;11630;42.660;23.292;2023-04-01T19:05:38;4.03;;;2.70;;
22929;SDS011;11630;42.660;23.292;2023-04-01T19:08:18;3.80;;;2.63;;
22929;SDS011;11630;42.660;23.292;2023-04-01T19:11:15;2.70;;;2.30;;
22929;SDS011;11630;42.660;23.292;2023-04-01T19:13:58;2.87;;;2.60;;
22929;SDS011;11630;42.660;23.292;2023-04-01T19:25:23;2.97;;;2.70;;
22929;SDS011;11630;42.660;23.292;2023-04-01T19:28:03;2.50;;;2.30;;
22929;SDS011;11630;42.660;23.292;2023-04-01T19:33:28;4.50;;;2.90;;
22929;SDS011;11630;42.660;23.292;2023-04-01T19:38:39;2.23;;;2.10;;
22929;SDS011;11630;42.660;23.292;2023-04-01T19:41:33;1.83;;;1.73;;
22929;SDS011;11630;42.660;23.292;2023-04-01T19:44:22;2.40;;;2.20;;
22929;SDS011;11630;42.660;23.292;2023-04-01T19:46:56;2.77;;;2.20;;
22929;SDS011;11630;42.660;23.292;2023-04-01T19:52:20;2.23;;;2.03;;
22929;SDS011;11630;42.660;23.292;2023-04-01T20:00:06;2.50;;;2.30;;
22929;SDS011;11630;42.660;23.292;2023-04-01T20:02:43;3.10;;;2.50;;
22929;SDS011;11630;42.660;23.292;2023-04-01T20:16:47;1.87;;;1.77;;
22929;SDS011;11630;42.660;23.292;2023-04-01T20:19:12;1.30;;;1.30;;
22929;SDS011;11630;42.660;23.292;2023-04-01T20:21:45;1.80;;;1.70;;
22929;SDS011;11630;42.660;23.292;2023-04-01T20:24:18;1.90;;;1.80;;
22929;SDS011;11630;42.660;23.292;2023-04-01T20:26:59;1.70;;;1.60;;
22929;SDS011;11630;42.660;23.292;2023-04-01T20:29:36;2.37;;;2.17;;
22929;SDS011;11630;42.660;23.292;2023-04-01T20:32:18;2.40;;;2.20;;
22929;SDS011;11630;42.660;23.292;2023-04-01T20:35:17;2.27;;;2.17;;
22929;SDS011;11630;42.660;23.292;2023-04-01T20:38:16;7.03;;;2.23;;
22929;SDS011;11630;42.660;23.292;2023-04-01T20:40:44;2.30;;;2.10;;
22929;SDS011;11630;42.660;23.292;2023-04-01T20:46:01;2.83;;;2.03;;
22929;SDS011;11630;42.660;23.292;2023-04-01T20:48:46;2.07;;;1.87;;
22929;SDS011;11630;42.660;23.292;2023-04-01T20:51:36;3.53;;;2.13;;
22929;SDS011;11630;42.660;23.292;2023-04-01T20:54:16;3.60;;;2.47;;
22929;SDS011;11630;42.660;23.292;2023-04-01T20:56:47;2.73;;;2.27;;
22929;SDS011;11630;42.660;23.292;2023-04-01T21:07:41;1.80;;;1.70;;
22929;SDS011;11630;42.660;23.292;2023-04-01T21:16:11;1.90;;;1.77;;
22929;SDS011;11630;42.660;23.292;2023-04-01T21:44:03;1.77;;;1.67;;
22929;SDS011;11630;42.660;23.292;2023-04-01T21:49:35;1.30;;;1.20;;
22929;SDS011;11630;42.660;23.292;2023-04-01T22:06:56;1.10;;;1.10;;
22929;SDS011;11630;42.660;23.292;2023-04-01T22:09:39;1.27;;;1.23;;
22929;SDS011;11630;42.660;23.292;2023-04-01T22:12:57;1.40;;;1.30;;
22929;SDS011;11630;42.660;23.292;2023-04-01T22:15:04;1.33;;;1.23;;
22929;SDS011;11630;42.660;23.292;2023-04-01T22:17:49;1.20;;;1.10;;
22929;SDS011;11630;42.660;23.292;2023-04-01T22:20:38;1.17;;;1.17;;
22929;SDS011;11630;42.660;23.292;2023-04-01T22:23:19;1.53;;;1.30;;
22929;SDS011;11630;42.660;23.292;2023-04-01T22:31:23;1.33;;;1.20;;
22929;SDS011;11630;42.660;23.292;2023-04-01T22:33:56;2.10;;;1.30;;
22929;SDS011;11630;42.660;23.292;2023-04-01T22:41:48;3.43;;;1.60;;
22929;SDS011;11630;42.660;23.292;2023-04-01T22:44:41;1.90;;;1.30;;
22929;SDS011;11630;42.660;23.292;2023-04-01T22:47:35;1.50;;;1.40;;
22929;SDS011;11630;42.660;23.292;2023-04-01T22:52:41;1.30;;;1.20;;
22929;SDS011;11630;42.660;23.292;2023-04-01T22:55:17;1.00;;;1.00;;
22929;SDS011;11630;42.660;23.292;2023-04-01T22:58:04;1.60;;;1.50;;
22929;SDS011;11630;42.660;23.292;2023-04-01T23:00:36;2.33;;;1.50;;
22929;SDS011;11630;42.660;23.292;2023-04-01T23:05:55;1.80;;;1.30;;
22929;SDS011;11630;42.660;23.292;2023-04-01T23:11:01;9.33;;;1.53;;
22929;SDS011;11630;42.660;23.292;2023-04-01T23:13:34;1.77;;;1.47;;
22929;SDS011;11630;42.660;23.292;2023-04-01T23:16:04;1.77;;;1.17;;
22929;SDS011;11630;42.660;23.292;2023-04-01T23:21:35;1.57;;;1.20;;
22929;SDS011;11630;42.660;23.292;2023-04-01T23:24:30;1.20;;;1.10;;
22929;SDS011;11630;42.660;23.292;2023-04-01T23:27:09;1.90;;;0.97;;
22929;SDS011;11630;42.660;23.292;2023-04-01T23:29:58;1.17;;;1.07;;
22929;SDS011;11630;42.660;23.292;2023-04-01T23:32:29;1.23;;;1.10;;
22929;SDS011;11630;42.660;23.292;2023-04-01T23:35:00;3.60;;;1.07;;
22929;SDS011;11630;42.660;23.292;2023-04-01T23:37:31;1.07;;;1.07;;
22929;SDS011;11630;42.660;23.292;2023-04-01T23:40:01;1.40;;;1.10;;
22929;SDS011;11630;42.660;23.292;2023-04-01T23:42:37;0.77;;;0.77;;
22929;SDS011;11630;42.660;23.292;2023-04-01T23:45:14;0.90;;;0.90;;
22929;SDS011;11630;42.660;23.292;2023-04-01T23:47:45;0.93;;;0.93;;
22929;SDS011;11630;42.660;23.292;2023-04-01T23:50:22;0.90;;;0.90;;
22929;SDS011;11630;42.660;23.292;2023-04-01T23:53:02;1.30;;;0.90;;
22929;SDS011;11630;42.660;23.292;2023-04-01T23:55:33;1.07;;;1.07;;
